As Olivia — DYQC — position and weather

sailwx.info

Track history (hours):
 
Tides and Currents Weather Stations Pressure Air Temp Water Temp Dewpoint Dewpoint Depression Visibility Wind Speed Wind Dir Waves Ship Positions

As Olivia

Last reported at 2018-Apr-19 12:17 UTC. Time now 2018-Apr-19 21:31 UTC.
Position N 30°46' E 122°37'.

Length 146 m; draft 9.8 m.

Type: Ship. MMSI: 548767000.

Date/timePositionNaut miles runAvg speedWind from/ knotsBaromVisibWave heightAir tempDewpointWater temp
2018-Apr-19 12:17N 30°46' E 122°37'18 3.4
2018-Apr-19 06:52N 31°03' E 122°45'7 0.5
2018-Apr-18 17:09N 31°09' E 122°48'0 0.0
2018-Apr-18 13:34N 31°09' E 122°48'0 0.0
2018-Apr-18 04:45N 31°09' E 122°48'0 0.1
2018-Apr-18 04:24N 31°09' E 122°48'1 2.5
2018-Apr-18 03:59N 31°08' E 122°48'1 1.3
2018-Apr-18 02:51N 31°07' E 122°50'0 0.0
2018-Apr-18 02:18N 31°07' E 122°50'0 0.1
2018-Apr-18 00:15N 31°07' E 122°50'0 0.2
2018-Apr-17 23:54N 31°07' E 122°50'0 0.1
2018-Apr-17 23:06N 31°07' E 122°50'0 0.0
2018-Apr-17 22:54N 31°07' E 122°50'0 0.0
2018-Apr-17 22:30N 31°07' E 122°50'0 0.0
2018-Apr-17 22:00N 31°07' E 122°50'0 0.0
2018-Apr-17 21:30N 31°07' E 122°50'0 0.0
2018-Apr-17 20:48N 31°07' E 122°50'0 0.0
2018-Apr-17 20:09N 31°07' E 122°50'0 0.1
2018-Apr-17 19:57N 31°07' E 122°50'0 0.1
2018-Apr-17 17:18N 31°07' E 122°50'0 0.1
2018-Apr-17 16:57N 31°07' E 122°50'0 0.0
2018-Apr-17 15:32N 31°07' E 122°50'0 0.1
2018-Apr-17 15:27N 31°07' E 122°50'0 0.0
2018-Apr-17 14:57N 31°07' E 122°50'0 0.1
2018-Apr-17 13:12N 31°07' E 122°50'0 0.1
2018-Apr-17 12:51N 31°07' E 122°50'0 0.1
2018-Apr-17 09:06N 31°07' E 122°50'0 0.0
2018-Apr-17 08:43N 31°07' E 122°50'0 0.0
2018-Apr-17 08:05N 31°07' E 122°50'  
2018-Apr-09 22:25N 01°14' E 103°56'513.1
2018-Apr-09 22:00N 01°11' E 103°51'612.5
2018-Apr-09 21:30N 01°08' E 103°46'612.6
2018-Apr-09 21:00N 01°04' E 103°41'510.8
2018-Apr-09 20:30N 01°05' E 103°36'611.4
2018-Apr-09 19:58N 01°09' E 103°32'611.9
2018-Apr-09 19:30N 01°11' E 103°37'5 9.8
2018-Apr-09 18:59N 01°11' E 103°42'0 0.2
2018-Apr-09 18:24N 01°11' E 103°42'0 0.1
2018-Apr-09 17:57N 01°11' E 103°42'0 0.2
2018-Apr-09 17:30N 01°11' E 103°42'0 0.0
2018-Apr-09 16:57N 01°11' E 103°42'0 0.0
2018-Apr-09 16:30N 01°11' E 103°42'0 0.1
2018-Apr-09 16:00N 01°11' E 103°42'0 0.1
2018-Apr-09 15:21N 01°11' E 103°42'0 0.2
2018-Apr-09 15:00N 01°11' E 103°42'0 0.0
2018-Apr-09 14:30N 01°11' E 103°42'0 0.1
2018-Apr-09 13:57N 01°11' E 103°42'0 0.2
2018-Apr-09 13:30N 01°11' E 103°42'0 0.1
2018-Apr-09 13:00N 01°11' E 103°42'0 0.0
2018-Apr-09 12:30N 01°11' E 103°42'  
Track history (hours):
 
Tides and Currents Weather Stations Pressure Air Temp Water Temp Dewpoint Dewpoint Depression Visibility Wind Speed Wind Dir Waves Ship Positions

As Olivia

Last reported at 2018-Apr-19 12:17 UTC. Time now 2018-Apr-19 21:31 UTC.
Position N 30°46' E 122°37'.

Length 146 m; draft 9.8 m.

Type: Ship. MMSI: 548767000.

Date/timePositionNaut miles runAvg speedWind from/ knotsBaromVisibWave heightAir tempDewpointWater temp
2018-Apr-19 12:17N 30°46' E 122°37'18 3.4
2018-Apr-19 06:52N 31°03' E 122°45'7 0.5
2018-Apr-18 17:09N 31°09' E 122°48'0 0.0
2018-Apr-18 13:34N 31°09' E 122°48'0 0.0
2018-Apr-18 04:45N 31°09' E 122°48'0 0.1
2018-Apr-18 04:24N 31°09' E 122°48'1 2.5
2018-Apr-18 03:59N 31°08' E 122°48'1 1.3
2018-Apr-18 02:51N 31°07' E 122°50'0 0.0
2018-Apr-18 02:18N 31°07' E 122°50'0 0.1
2018-Apr-18 00:15N 31°07' E 122°50'0 0.2
2018-Apr-17 23:54N 31°07' E 122°50'0 0.1
2018-Apr-17 23:06N 31°07' E 122°50'0 0.0
2018-Apr-17 22:54N 31°07' E 122°50'0 0.0
2018-Apr-17 22:30N 31°07' E 122°50'0 0.0
2018-Apr-17 22:00N 31°07' E 122°50'0 0.0
2018-Apr-17 21:30N 31°07' E 122°50'0 0.0
2018-Apr-17 20:48N 31°07' E 122°50'0 0.0
2018-Apr-17 20:09N 31°07' E 122°50'0 0.1
2018-Apr-17 19:57N 31°07' E 122°50'0 0.1
2018-Apr-17 17:18N 31°07' E 122°50'0 0.1
2018-Apr-17 16:57N 31°07' E 122°50'0 0.0
2018-Apr-17 15:32N 31°07' E 122°50'0 0.1
2018-Apr-17 15:27N 31°07' E 122°50'0 0.0
2018-Apr-17 14:57N 31°07' E 122°50'0 0.1
2018-Apr-17 13:12N 31°07' E 122°50'0 0.1
2018-Apr-17 12:51N 31°07' E 122°50'0 0.1
2018-Apr-17 09:06N 31°07' E 122°50'0 0.0
2018-Apr-17 08:43N 31°07' E 122°50'0 0.0
2018-Apr-17 08:05N 31°07' E 122°50'  
2018-Apr-09 22:25N 01°14' E 103°56'513.1
2018-Apr-09 22:00N 01°11' E 103°51'612.5
2018-Apr-09 21:30N 01°08' E 103°46'612.6
2018-Apr-09 21:00N 01°04' E 103°41'510.8
2018-Apr-09 20:30N 01°05' E 103°36'611.4
2018-Apr-09 19:58N 01°09' E 103°32'611.9
2018-Apr-09 19:30N 01°11' E 103°37'5 9.8
2018-Apr-09 18:59N 01°11' E 103°42'0 0.2
2018-Apr-09 18:24N 01°11' E 103°42'0 0.1
2018-Apr-09 17:57N 01°11' E 103°42'0 0.2
2018-Apr-09 17:30N 01°11' E 103°42'0 0.0
2018-Apr-09 16:57N 01°11' E 103°42'0 0.0
2018-Apr-09 16:30N 01°11' E 103°42'0 0.1
2018-Apr-09 16:00N 01°11' E 103°42'0 0.1
2018-Apr-09 15:21N 01°11' E 103°42'0 0.2
2018-Apr-09 15:00N 01°11' E 103°42'0 0.0
2018-Apr-09 14:30N 01°11' E 103°42'0 0.1
2018-Apr-09 13:57N 01°11' E 103°42'0 0.2
2018-Apr-09 13:30N 01°11' E 103°42'0 0.1
2018-Apr-09 13:00N 01°11' E 103°42'0 0.0
2018-Apr-09 12:30N 01°11' E 103°42'  

Dump ship's entire track history